Celebrity Galaxy — 9HJH9 — position and weather

sailwx.info

Track history (hours):
 
Tides and Currents Weather Stations Pressure Air Temp Water Temp Dewpoint Dewpoint Depression Visibility Wind Speed Wind Dir Waves Ship Positions

Celebrity Galaxy

Last reported at 2018-Feb-19 03:56 UTC. Time now 2018-Feb-19 10:19 UTC.
Position N 01°14' E 104°03'.

Length 262 m; draft 8.5 m.

Type: Passenger vessel. MMSI: 249051000.

Date/timePositionNaut miles runAvg speedWind from/ knotsBaromVisibWave heightAir tempDewpointWater temp
2018-Feb-19 03:56N 01°14' E 104°03'816.9
2018-Feb-19 03:29N 01°13' E 103°55'816.2
2018-Feb-19 03:00N 01°10' E 103°48'816.8
2018-Feb-19 02:30N 01°04' E 103°42'814.5
2018-Feb-19 01:59N 01°04' E 103°35'816.7
2018-Feb-19 01:30N 01°08' E 103°28'816.5
2018-Feb-19 01:00N 01°13' E 103°21'324 8.6
2018-Feb-17 11:16N 05°35' E 100°10'713.5
2018-Feb-17 10:46N 05°33' E 100°17'414.5
2018-Feb-17 10:29N 05°30' E 100°20'510.7
2018-Feb-17 10:00N 05°25' E 100°21'0 0.1
2018-Feb-17 09:25N 05°25' E 100°21'0 0.0
2018-Feb-17 08:49N 05°25' E 100°21'0 0.0
2018-Feb-17 08:25N 05°25' E 100°21'0 0.0
2018-Feb-17 07:55N 05°25' E 100°21'0 0.0
2018-Feb-17 07:25N 05°25' E 100°21'0 0.0
2018-Feb-17 06:55N 05°25' E 100°21'0 0.0
2018-Feb-17 06:25N 05°25' E 100°21'0 0.0
2018-Feb-17 05:49N 05°25' E 100°21'0 0.0
2018-Feb-17 05:25N 05°25' E 100°21'0 0.0
2018-Feb-17 04:55N 05°25' E 100°21'0 0.0
2018-Feb-17 04:25N 05°25' E 100°21'0 0.0
2018-Feb-17 03:49N 05°25' E 100°21'0 0.0
2018-Feb-17 03:25N 05°25' E 100°21'0 0.0
2018-Feb-17 02:55N 05°25' E 100°21'0 0.0
2018-Feb-17 02:25N 05°25' E 100°21'0 0.0
2018-Feb-17 01:55N 05°25' E 100°21'0 0.0
2018-Feb-17 01:25N 05°25' E 100°21'0 0.0
2018-Feb-17 00:55N 05°25' E 100°21'0 0.0
2018-Feb-17 00:25N 05°25' E 100°21'0 0.0
2018-Feb-16 23:55N 05°25' E 100°21'0 0.0
2018-Feb-16 23:25N 05°25' E 100°21'0 0.0
2018-Feb-16 22:59N 05°25' E 100°21'2 3.5
2018-Feb-16 22:30N 05°27' E 100°21'610.8
2018-Feb-16 21:59N 05°32' E 100°18'  
2018-Feb-14 17:11N 01°17' E 103°23'316.8
2018-Feb-14 16:59N 01°15' E 103°25'816.6
2018-Feb-14 16:30N 01°12' E 103°32'917.1
2018-Feb-14 16:01N 01°10' E 103°41'815.6
2018-Feb-14 15:31N 01°11' E 103°48'5 9.3
2018-Feb-14 15:00N 01°14' E 103°52'2 1.9
2018-Feb-14 14:07N 01°16' E 103°52'0 0.0
2018-Feb-14 13:49N 01°16' E 103°52'0 0.0
2018-Feb-14 13:25N 01°16' E 103°52'0 0.0
2018-Feb-14 12:55N 01°16' E 103°52'0 0.0
2018-Feb-14 12:19N 01°16' E 103°52'0 0.0
2018-Feb-14 09:43N 01°16' E 103°52'0 0.0
2018-Feb-14 05:01N 01°16' E 103°52'0 0.0
2018-Feb-14 04:58N 01°16' E 103°52'0 0.0
2018-Feb-14 04:25N 01°16' E 103°52'0 0.0
2018-Feb-14 03:55N 01°16' E 103°52'0 0.0
2018-Feb-14 03:25N 01°16' E 103°52'0 0.0
2018-Feb-14 02:55N 01°16' E 103°52'0 0.0
2018-Feb-14 02:25N 01°16' E 103°52'0 0.0
2018-Feb-14 01:55N 01°16' E 103°52'0 0.0
2018-Feb-14 01:28N 01°16' E 103°52'0 0.0
2018-Feb-14 00:55N 01°16' E 103°52'0 0.0
2018-Feb-14 00:28N 01°16' E 103°52'0 0.0
2018-Feb-13 23:58N 01°16' E 103°52'0 0.0
2018-Feb-13 23:25N 01°16' E 103°52'0 0.0
2018-Feb-13 22:55N 01°16' E 103°52'0 0.0
2018-Feb-13 22:25N 01°16' E 103°52'0 0.0
2018-Feb-13 21:58N 01°16' E 103°52'0 0.0
2018-Feb-13 21:28N 01°16' E 103°52'0 0.0
2018-Feb-13 20:55N 01°16' E 103°52'0 0.0
2018-Feb-13 20:25N 01°16' E 103°52'0 0.0
2018-Feb-13 19:58N 01°16' E 103°52'0 0.0
2018-Feb-13 19:19N 01°16' E 103°52'0 0.0
2018-Feb-13 18:58N 01°16' E 103°52'0 0.0
2018-Feb-13 18:25N 01°16' E 103°52'0 0.0
2018-Feb-13 17:58N 01°16' E 103°52'0 0.0
2018-Feb-13 17:25N 01°16' E 103°52'0 0.0
2018-Feb-13 16:55N 01°16' E 103°52'0 0.0
2018-Feb-13 16:25N 01°16' E 103°52'0 0.0
2018-Feb-13 15:55N 01°16' E 103°52'0 0.0
2018-Feb-13 15:30N 01°16' E 103°52'0 0.0
2018-Feb-13 14:55N 01°16' E 103°52'0 0.0
2018-Feb-13 14:25N 01°16' E 103°52'0 0.0
2018-Feb-13 13:55N 01°16' E 103°52'0 0.0
2018-Feb-13 13:13N 01°16' E 103°52'0 0.0
2018-Feb-13 12:49N 01°16' E 103°52'0 0.0
2018-Feb-13 12:25N 01°16' E 103°52'0 0.0
2018-Feb-13 11:49N 01°16' E 103°52'0 0.0
2018-Feb-13 11:25N 01°16' E 103°52'0 0.0
2018-Feb-13 10:58N 01°16' E 103°52'0 0.0
2018-Feb-13 10:25N 01°16' E 103°52'0 0.0
2018-Feb-13 09:57N 01°16' E 103°52'0 0.0
2018-Feb-13 09:26N 01°16' E 103°52'0 0.0
2018-Feb-13 08:55N 01°16' E 103°52'0 0.0
2018-Feb-13 08:19N 01°16' E 103°52'0 0.0
2018-Feb-13 07:57N 01°16' E 103°52'0 0.0
2018-Feb-13 07:27N 01°16' E 103°52'0 0.0
2018-Feb-13 06:57N 01°16' E 103°52'0 0.0
2018-Feb-13 06:29N 01°16' E 103°52'0 0.0
2018-Feb-13 05:55N 01°16' E 103°52'0 0.0
2018-Feb-13 05:25N 01°16' E 103°52'0 0.0
2018-Feb-13 04:58N 01°16' E 103°52'0 0.0
2018-Feb-13 04:24N 01°16' E 103°52'0 0.0
2018-Feb-13 03:38N 01°16' E 103°52'0 0.0
2018-Feb-13 03:26N 01°16' E 103°52'0 0.0
2018-Feb-13 02:56N 01°16' E 103°52'0 0.0
2018-Feb-13 02:12N 01°16' E 103°52'0 0.0
2018-Feb-13 01:59N 01°16' E 103°52'0 0.0
2018-Feb-13 01:22N 01°16' E 103°52'0 0.0
2018-Feb-13 00:34N 01°16' E 103°52'0 0.0
2018-Feb-13 00:30N 01°16' E 103°52'2 4.1
2018-Feb-13 00:00N 01°14' E 103°53'510.7
2018-Feb-12 23:30N 01°15' E 103°58'  
Track history (hours):
 
Tides and Currents Weather Stations Pressure Air Temp Water Temp Dewpoint Dewpoint Depression Visibility Wind Speed Wind Dir Waves Ship Positions

Celebrity Galaxy

Last reported at 2018-Feb-19 03:56 UTC. Time now 2018-Feb-19 10:19 UTC.
Position N 01°14' E 104°03'.

Length 262 m; draft 8.5 m.

Type: Passenger vessel. MMSI: 249051000.

Date/timePositionNaut miles runAvg speedWind from/ knotsBaromVisibWave heightAir tempDewpointWater temp
2018-Feb-19 03:56N 01°14' E 104°03'816.9
2018-Feb-19 03:29N 01°13' E 103°55'816.2
2018-Feb-19 03:00N 01°10' E 103°48'816.8
2018-Feb-19 02:30N 01°04' E 103°42'814.5
2018-Feb-19 01:59N 01°04' E 103°35'816.7
2018-Feb-19 01:30N 01°08' E 103°28'816.5
2018-Feb-19 01:00N 01°13' E 103°21'324 8.6
2018-Feb-17 11:16N 05°35' E 100°10'713.5
2018-Feb-17 10:46N 05°33' E 100°17'414.5
2018-Feb-17 10:29N 05°30' E 100°20'510.7
2018-Feb-17 10:00N 05°25' E 100°21'0 0.1
2018-Feb-17 09:25N 05°25' E 100°21'0 0.0
2018-Feb-17 08:49N 05°25' E 100°21'0 0.0
2018-Feb-17 08:25N 05°25' E 100°21'0 0.0
2018-Feb-17 07:55N 05°25' E 100°21'0 0.0
2018-Feb-17 07:25N 05°25' E 100°21'0 0.0
2018-Feb-17 06:55N 05°25' E 100°21'0 0.0
2018-Feb-17 06:25N 05°25' E 100°21'0 0.0
2018-Feb-17 05:49N 05°25' E 100°21'0 0.0
2018-Feb-17 05:25N 05°25' E 100°21'0 0.0
2018-Feb-17 04:55N 05°25' E 100°21'0 0.0
2018-Feb-17 04:25N 05°25' E 100°21'0 0.0
2018-Feb-17 03:49N 05°25' E 100°21'0 0.0
2018-Feb-17 03:25N 05°25' E 100°21'0 0.0
2018-Feb-17 02:55N 05°25' E 100°21'0 0.0
2018-Feb-17 02:25N 05°25' E 100°21'0 0.0
2018-Feb-17 01:55N 05°25' E 100°21'0 0.0
2018-Feb-17 01:25N 05°25' E 100°21'0 0.0
2018-Feb-17 00:55N 05°25' E 100°21'0 0.0
2018-Feb-17 00:25N 05°25' E 100°21'0 0.0
2018-Feb-16 23:55N 05°25' E 100°21'0 0.0
2018-Feb-16 23:25N 05°25' E 100°21'0 0.0
2018-Feb-16 22:59N 05°25' E 100°21'2 3.5
2018-Feb-16 22:30N 05°27' E 100°21'610.8
2018-Feb-16 21:59N 05°32' E 100°18'  
2018-Feb-14 17:11N 01°17' E 103°23'316.8
2018-Feb-14 16:59N 01°15' E 103°25'816.6
2018-Feb-14 16:30N 01°12' E 103°32'917.1
2018-Feb-14 16:01N 01°10' E 103°41'815.6
2018-Feb-14 15:31N 01°11' E 103°48'5 9.3
2018-Feb-14 15:00N 01°14' E 103°52'2 1.9
2018-Feb-14 14:07N 01°16' E 103°52'0 0.0
2018-Feb-14 13:49N 01°16' E 103°52'0 0.0
2018-Feb-14 13:25N 01°16' E 103°52'0 0.0
2018-Feb-14 12:55N 01°16' E 103°52'0 0.0
2018-Feb-14 12:19N 01°16' E 103°52'0 0.0
2018-Feb-14 09:43N 01°16' E 103°52'0 0.0
2018-Feb-14 05:01N 01°16' E 103°52'0 0.0
2018-Feb-14 04:58N 01°16' E 103°52'0 0.0
2018-Feb-14 04:25N 01°16' E 103°52'0 0.0
2018-Feb-14 03:55N 01°16' E 103°52'0 0.0
2018-Feb-14 03:25N 01°16' E 103°52'0 0.0
2018-Feb-14 02:55N 01°16' E 103°52'0 0.0
2018-Feb-14 02:25N 01°16' E 103°52'0 0.0
2018-Feb-14 01:55N 01°16' E 103°52'0 0.0
2018-Feb-14 01:28N 01°16' E 103°52'0 0.0
2018-Feb-14 00:55N 01°16' E 103°52'0 0.0
2018-Feb-14 00:28N 01°16' E 103°52'0 0.0
2018-Feb-13 23:58N 01°16' E 103°52'0 0.0
2018-Feb-13 23:25N 01°16' E 103°52'0 0.0
2018-Feb-13 22:55N 01°16' E 103°52'0 0.0
2018-Feb-13 22:25N 01°16' E 103°52'0 0.0
2018-Feb-13 21:58N 01°16' E 103°52'0 0.0
2018-Feb-13 21:28N 01°16' E 103°52'0 0.0
2018-Feb-13 20:55N 01°16' E 103°52'0 0.0
2018-Feb-13 20:25N 01°16' E 103°52'0 0.0
2018-Feb-13 19:58N 01°16' E 103°52'0 0.0
2018-Feb-13 19:19N 01°16' E 103°52'0 0.0
2018-Feb-13 18:58N 01°16' E 103°52'0 0.0
2018-Feb-13 18:25N 01°16' E 103°52'0 0.0
2018-Feb-13 17:58N 01°16' E 103°52'0 0.0
2018-Feb-13 17:25N 01°16' E 103°52'0 0.0
2018-Feb-13 16:55N 01°16' E 103°52'0 0.0
2018-Feb-13 16:25N 01°16' E 103°52'0 0.0
2018-Feb-13 15:55N 01°16' E 103°52'0 0.0
2018-Feb-13 15:30N 01°16' E 103°52'0 0.0
2018-Feb-13 14:55N 01°16' E 103°52'0 0.0
2018-Feb-13 14:25N 01°16' E 103°52'0 0.0
2018-Feb-13 13:55N 01°16' E 103°52'0 0.0
2018-Feb-13 13:13N 01°16' E 103°52'0 0.0
2018-Feb-13 12:49N 01°16' E 103°52'0 0.0
2018-Feb-13 12:25N 01°16' E 103°52'0 0.0
2018-Feb-13 11:49N 01°16' E 103°52'0 0.0
2018-Feb-13 11:25N 01°16' E 103°52'0 0.0
2018-Feb-13 10:58N 01°16' E 103°52'0 0.0
2018-Feb-13 10:25N 01°16' E 103°52'0 0.0
2018-Feb-13 09:57N 01°16' E 103°52'0 0.0
2018-Feb-13 09:26N 01°16' E 103°52'0 0.0
2018-Feb-13 08:55N 01°16' E 103°52'0 0.0
2018-Feb-13 08:19N 01°16' E 103°52'0 0.0
2018-Feb-13 07:57N 01°16' E 103°52'0 0.0
2018-Feb-13 07:27N 01°16' E 103°52'0 0.0
2018-Feb-13 06:57N 01°16' E 103°52'0 0.0
2018-Feb-13 06:29N 01°16' E 103°52'0 0.0
2018-Feb-13 05:55N 01°16' E 103°52'0 0.0
2018-Feb-13 05:25N 01°16' E 103°52'0 0.0
2018-Feb-13 04:58N 01°16' E 103°52'0 0.0
2018-Feb-13 04:24N 01°16' E 103°52'0 0.0
2018-Feb-13 03:38N 01°16' E 103°52'0 0.0
2018-Feb-13 03:26N 01°16' E 103°52'0 0.0
2018-Feb-13 02:56N 01°16' E 103°52'0 0.0
2018-Feb-13 02:12N 01°16' E 103°52'0 0.0
2018-Feb-13 01:59N 01°16' E 103°52'0 0.0
2018-Feb-13 01:22N 01°16' E 103°52'0 0.0
2018-Feb-13 00:34N 01°16' E 103°52'0 0.0
2018-Feb-13 00:30N 01°16' E 103°52'2 4.1
2018-Feb-13 00:00N 01°14' E 103°53'510.7
2018-Feb-12 23:30N 01°15' E 103°58'  

Dump ship's entire track history